Home > Products > Valid Products > MTR

000
SAZS31 NSTU 300452
MTRPPG
METAR NSTU 300450Z 08013KT 11SM SCT022TCU BKN040 BKN080 27/25 A2984
RMK TCU N-NE SLP103 T02710252=





000
SAZS31 NSTU 300452
MTRPPG
METAR NSTU 300450Z 08013KT 11SM SCT022TCU BKN040 BKN080 27/25 A2984
RMK TCU N-NE SLP103 T02710252=





000
SAZS31 NSTU 300353
MTRPPG
METAR NSTU 300350Z 10013KT 11SM SCT022TCU BKN040 BKN080 27/25 A2983
RMK TCU N-NE SLP102 T02720251=





000
SAZS31 NSTU 300254
MTRPPG
METAR NSTU 300250Z 10013KT 11SM FEW022 SCT040 BKN080 OVC180 28/25
A2983 RMK SLP102 8/828 T02750250 57010=




000
SAZS31 NSTU 300153
MTRPPG
METAR NSTU 300152Z 09009KT 10SM FEW022 SCT040 BKN080 OVC180 27/25
A2983 RMK SLP103 T02690249=




000
SAZS31 NSTU 300055
MTRPPG
METAR NSTU 300053Z 08008KT 11SM FEW022 SCT040 BKN080 27/25 A2983 RMK
SHRAE30 SLP103 T02690245=




000
SAZS31 NSTU 300055
MTRPPG
METAR NSTU 300053Z 08008KT 11SM FEW022 SCT040 BKN080 27/25 A2983 RMK
SHRAE30 SLP103 T02690245=




000
SAZS31 NSTU 292357
MTRPPG
METAR NSTU 292352Z 09007KT 10SM -SHRA SCT019TCU BKN035 OVC100 26/23
A2986 RMK TCU E-S-SW SLP112 60012 8/82/ T02560233 10281 20254 57027=




000
SAZS31 NSTU 292357
MTRPPG
METAR NSTU 292352Z 09007KT 10SM -SHRA SCT019TCU BKN035 OVC100 26/23
A2986 RMK TCU E-S-SW SLP112 60012 8/82/ T02560233 10281 20254 57027=




000
SAZS31 NSTU 292355
MTRPPG
METAR NSTU 292352Z 09007KT 10SM -SHRA SCT019TCU BKN035 OVC100 26/23
A2986 RMK TCU E-S-SW SLP112 60012 8/82/ T02560233 10281 20254 57027=




000
SAZS31 NSTU 292355
MTRPPG
METAR NSTU 292352Z 09007KT 10SM -SHRA SCT019TCU BKN035 OVC100 26/23
A2986 RMK TCU E-S-SW SLP112 60012 8/82/ T02560233 10281 20254 57027=




000
SAZS31 NSTU 292257
MTRPPG
METAR NSTU 292256Z 03008G17KT 10SM -SHRA SCT019TCU BKN035 OVC100
26/23 A2989 RMK TCU W-N-NE SLP122 T02590226=




000
SAZS31 NSTU 292257
MTRPPG
METAR NSTU 292256Z 03008G17KT 10SM -SHRA SCT019TCU BKN035 OVC100
26/23 A2989 RMK TCU W-N-NE SLP122 T02590226=




000
SAZS31 NSTU 292152
MTRPPG
METAR NSTU 292150Z VRB05KT 10SM -SHRA SCT019TCU BKN035 BKN100 OVC180
27/25 A2991 RMK TCU NW-N-NE SLP129 T02690247=




000
SAZS31 NSTU 292053
MTRPPG
METAR NSTU 292052Z 07011G19KT 10SM -SHRA FEW007 BKN015TCU BKN035
OVC080 25/24 A2994 RMK SHRAB45 TCU W-N-NE SLP139 60000 8/41/
T02540236 52022=




000
SAZS31 NSTU 291952
MTRPPG
METAR NSTU 291951Z 10012KT 11SM SCT019TCU BKN040 BKN100 28/26 A2991
RMK TCU NW-N-NE SLP130 T02810257=




000
SAZS31 NSTU 291855
MTRPPG
METAR NSTU 291853Z 08012KT 11SM SCT019TCU BKN040 OVC100 27/25 A2991
RMK TCU W-N-NE SLP129 T02730251=




000
SAZS31 NSTU 291752
MTRPPG
METAR NSTU 291750Z 05006KT 12SM FEW019 SCT040 OVC100 27/24 A2987 RMK
SHRAE15 SLP117 60001 8/87/ T02690237 10277 20268 52003=




000
SAZS31 NSTU 291701
MTRPPG
METAR NSTU 291655Z 12007KT 7SM -SHRA SCT017 BKN040 OVC100 27/25
A2986 RMK SHRAB45 SLP113 T02680251=




000
SAZS31 NSTU 291611
MTRPPG
METAR NSTU 291555Z 09011KT 10SM SCT018 BKN040 OVC100 27/25 A2986 RMK
SLP113 T02730253=




000
SAZS31 NSTU 291611
MTRPPG
METAR NSTU 291555Z 09011KT 10SM SCT018 BKN040 OVC100 27/25 A2986 RMK
SLP113 T02730253=




000
SAZS31 NSTU 291451
MTRPPG
METAR NSTU 291450Z 09010KT 10SM SCT017 BKN040 OVC100 28/25 A2986 RMK
SLP113 8/87/ T02750249 57012=




000
SAZS31 NSTU 291356
MTRPPG
METAR NSTU 291354Z 10012KT 10SM SCT017 BKN040 OVC100 28/25 A2987 RMK
SLP117 T02770253=




000
SAZS31 NSTU 291253
MTRPPG
METAR NSTU 291252Z 10013KT 10SM SCT017 BKN040 OVC100 28/25 A2988 RMK
SLP119 T02750245=




000
SAZS31 NSTU 291253
MTRPPG
METAR NSTU 291252Z 10013KT 10SM SCT017 BKN040 OVC100 28/25 A2988 RMK
SLP119 T02750245=




000
SAZS31 NSTU 291155
MTRPPG
METAR NSTU 291151Z 10012KT 10SM SCT017 BKN040 OVC100 28/25 A2990 RMK
SLP125 70020 8/87/ T02770251 10280 20277 56017=




000
SAZS31 NSTU 291155
MTRPPG
METAR NSTU 291151Z 10012KT 10SM SCT017 BKN040 OVC100 28/25 A2990 RMK
SLP125 70020 8/87/ T02770251 10280 20277 56017=




000
SAZS31 NSTU 291057
MTRPPG
METAR NSTU 291056Z 10013KT 10SM SCT018TCU BKN035 BKN100 28/25 A2992
RMK TCU ALQDS SLP134 T02780251 403090252=




000
SAZS31 NSTU 291057
MTRPPG
METAR NSTU 291056Z 10013KT 10SM SCT018TCU BKN035 BKN100 28/25 A2992
RMK TCU ALQDS SLP134 T02780251 403090252=




000
SAZS31 NSTU 290952
MTRPPG
METAR NSTU 290950Z 09014KT 10SM SCT018TCU BKN035 BKN100 28/25 A2995
RMK TCU N-NE SLP142 T02790253=




000
SAZS31 NSTU 290853
MTRPPG
METAR NSTU 290850Z 09013KT 10SM SCT018TCU BKN035 BKN100 28/25 A2995
RMK TCU W-N-NE SLP142 8/870 T02790253 52010=




000
SAZS31 NSTU 290753
MTRPPG
METAR NSTU 290750Z 10014KT 10SM SCT018TCU BKN035 BKN100 28/25 A2994
RMK TCU N-NE SLP141 T02800252=





000
SAZS31 NSTU 290652
MTRPPG
METAR NSTU 290650Z 10012KT 10SM SCT015TCU BKN035 BKN100 28/25 A2993
RMK TCU N-NE SLP135 T02800254=




000
SAZS31 NSTU 290559
MTRPPG
METAR NSTU 290550Z 10013KT 10SM SCT015TCU BKN035 BKN100 28/25 A2992
RMK TCU W-N-NE SLP132 8/870 T02790250 10299 20278 52010=




000
SAZS31 NSTU 290559
MTRPPG
METAR NSTU 290550Z 10013KT 10SM SCT015TCU BKN035 BKN100 28/25 A2992
RMK TCU W-N-NE SLP132 8/870 T02790250 10299 20278 52010=




000
SAZS31 NSTU 290453
MTRPPG
METAR NSTU 290450Z 10014KT 12SM BKN015TCU BKN035 28/25 A2990 RMK TCU
W-N-NE SLP125 T02810252=




000
SAZS31 NSTU 290453
MTRPPG
METAR NSTU 290450Z 10014KT 12SM BKN015TCU BKN035 28/25 A2990 RMK TCU
W-N-NE SLP125 T02810252=




000
SAZS31 NSTU 290354
MTRPPG
METAR NSTU 290350Z 09012KT 12SM BKN015TCU BKN035 28/25 A2989 RMK TCU
ALQDS SLP124 T02830252=




000
SAZS31 NSTU 290354
MTRPPG
METAR NSTU 290350Z 09012KT 12SM BKN015TCU BKN035 28/25 A2989 RMK TCU
ALQDS SLP124 T02830252=




000
SAZS31 NSTU 290254
MTRPPG
METAR NSTU 290250Z 10013KT 12SM SCT015TCU BKN035 BKN080 29/25 A2989
RMK TCU W-N-NE SLP122 60000 8/470 T02860253 58012=




000
SAZS31 NSTU 290152
MTRPPG
METAR NSTU 290150Z 10014KT 12SM SCT015TCU SCT035 BKN080 BKN180 30/26
A2988 RMK TCU W-N-NE SLP120 T02980257=




000
SAZS31 NSTU 290152
MTRPPG
METAR NSTU 290150Z 10014KT 12SM SCT015TCU SCT035 BKN080 BKN180 30/26
A2988 RMK TCU W-N-NE SLP120 T02980257=




000
SAZS31 NSTU 290056
MTRPPG
METAR NSTU 290055Z 11014KT 12SM SCT015TCU BKN035 BKN080 30/26 A2990
RMK TCU W-N-NE SLP127 T02990259=




000
SAZS31 NSTU 290056
MTRPPG
METAR NSTU 290055Z 11014KT 12SM SCT015TCU BKN035 BKN080 30/26 A2990
RMK TCU W-N-NE SLP127 T02990259=




000
SAZS31 NSTU 282354
MTRPPG
METAR NSTU 282352Z 11014KT 12SM SCT017TCU BKN040 BKN100 30/26 A2992
RMK TCU W-N-NE SLP134 60002 8/870 T02970259 10309 20252 57019=




000
SAZS31 NSTU 282354
MTRPPG
METAR NSTU 282352Z 11014KT 12SM SCT017TCU BKN040 BKN100 30/26 A2992
RMK TCU W-N-NE SLP134 60002 8/870 T02970259 10309 20252 57019=




000
SAZS31 NSTU 282251
MTRPPG
METAR NSTU 282250Z 10014KT 12SM SCT017TCU BKN040 BKN100 31/27 A2995
RMK TCU W-N-NE SLP142 T03090265=




000
SAZS31 NSTU 282157
MTRPPG
METAR NSTU 282156Z 10015KT 12SM SCT017TCU BKN040 BKN100 30/27 A2997
RMK SHRAE05 TCU W-N-NE SLP149 T03030265=




000
SAZS31 NSTU 282059
MTRPPG
METAR NSTU 282057Z 09014KT 12SM -SHRA SCT017TCU BKN040 BKN100 30/27
A2998 RMK TCU W-N-NE SLP152 60002 8/810 T02960265 52007=




000
SAZS31 NSTU 281952
MTRPPG
METAR NSTU 281950Z 09015KT 12SM -SHRA SCT017TCU BKN040 BKN100 28/26
A2998 RMK TCU ALQDS SLP154 T02820256=




000
SAZS31 NSTU 281952
MTRPPG
METAR NSTU 281950Z 09015KT 12SM -SHRA SCT017TCU BKN040 BKN100 28/26
A2998 RMK TCU ALQDS SLP154 T02820256=




000
SAZS31 NSTU 281856
MTRPPG
METAR NSTU 281850Z 13012KT 12SM -SHRA SCT015CB BKN040 BKN100 27/25
A2998 RMK SHRAB20 CB ALQDS SLP152 T02680251=




000
SAZS31 NSTU 281753
MTRPPG
METAR NSTU 281750Z 09015KT 12SM SCT015CB SCT040 BKN100 25/24 A2996
RMK CB SE-S AND NE SLP146 60018 8/320 T02520237 10273 20252 51015=




000
SAZS31 NSTU 281753
MTRPPG
METAR NSTU 281750Z 09015KT 12SM SCT015CB SCT040 BKN100 25/24 A2996
RMK CB SE-S AND NE SLP146 60018 8/320 T02520237 10273 20252 51015=




000
SAZS31 NSTU 281652
MTRPPG
METAR NSTU 281650Z 08012KT 10SM SCT019 BKN040 OVC100 27/24 A2994 RMK
SHRAE10 SLP139 T02660236=




000
SAZS31 NSTU 281634
MTRPPG
METAR NSTU 281552Z 00000KT 7SM -SHRA SCT015 BKN040 OVC080 26/23
A2993 RMK SLP135 T02630234=




000
SAZS31 NSTU 281457
MTRPPG
METAR NSTU 281452Z 05009KT 7SM -SHRA SCT015 BKN040 OVC080 26/24
A2991 RMK SLP130 60006 8/82/ T02600241 57003=




000
SAZS31 NSTU 281402
MTRPPG
METAR NSTU 281358Z 09012KT 5SM -SHRA FEW008 BKN017 OVC090 27/25
A2991 RMK SLP129 T02730253=




000
SAZS31 NSTU 281402
MTRPPG
METAR NSTU 281358Z 09012KT 5SM -SHRA FEW008 BKN017 OVC090 27/25
A2991 RMK SLP129 T02730253=




000
SAZS31 NSTU 281255
MTRPPG
METAR NSTU 281253Z 10014KT 5SM -SHRA FEW008 BKN017 OVC090 27/25
A2992 RMK SLP130 T02710252=




000
SAZS31 NSTU 281255
MTRPPG
METAR NSTU 281253Z 10014KT 5SM -SHRA FEW008 BKN017 OVC090 27/25
A2992 RMK SLP130 T02710252=




000
SAZS31 NSTU 281156
MTRPPG
METAR NSTU 281150Z 13007KT 7SM -SHRA SCT018 BKN100 26/25 A2992 RMK
SHRAB01 SLP134 60002 70028 8/120 T02640246 10280 20264 57007=




000
SAZS31 NSTU 281156
MTRPPG
METAR NSTU 281150Z 13007KT 7SM -SHRA SCT018 BKN100 26/25 A2992 RMK
SHRAB01 SLP134 60002 70028 8/120 T02640246 10280 20264 57007=




000
SAZS31 NSTU 281053
MTRPPG
METAR NSTU 281052Z 11010KT 10SM SCT018 BKN100 28/26 A2994 RMK SLP139
T02780257 403060259=




000
SAZS31 NSTU 281053
MTRPPG
METAR NSTU 281052Z 11010KT 10SM SCT018 BKN100 28/26 A2994 RMK SLP139
T02780257 403060259=




000
SAZS31 NSTU 280955
MTRPPG
METAR NSTU 280952Z 09014KT 10SM SCT016 BKN100 28/25 A2995 RMK SLP141
T02780254=




000
SAZS31 NSTU 280854
MTRPPG
METAR NSTU 280850Z 09016KT 10SM SCT016 BKN100 28/26 A2994 RMK SLP141
8/170 T02800257 53015=




000
SAZS31 NSTU 280753
MTRPPG
METAR NSTU 280750Z 08015KT 10SM SCT016 BKN100 28/26 A2994 RMK SLP139
T02780257=




000
SAZS31 NSTU 280753
MTRPPG
METAR NSTU 280750Z 08015KT 10SM SCT016 BKN100 28/26 A2994 RMK SLP139
T02780257=




000
SAZS31 NSTU 280653
MTRPPG
METAR NSTU 280650Z 09014KT 10SM SCT016 BKN100 BKN250 28/26 A2992 RMK
SLP134 T02770257=





000
SAZS31 NSTU 280559
MTRPPG
METAR NSTU 280551Z VRB06KT 10SM SCT016 BKN100 BKN250 27/25 A2990 RMK
SHRAE32 SLP125 60004 8/171 T02710250 10306 20266 52012=




000
SAZS31 NSTU 280559
MTRPPG
METAR NSTU 280551Z VRB06KT 10SM SCT016 BKN100 BKN250 27/25 A2990 RMK
SHRAE32 SLP125 60004 8/171 T02710250 10306 20266 52012=




000
SAZS31 NSTU 280454
MTRPPG
METAR NSTU 280450Z VRB05KT 11SM -SHRA SCT018TCU BKN040 BKN100 28/25
A2988 RMK TCU ALQDS SLP120 T02750252=




000
SAZS31 NSTU 280155
MTRPPG
METAR NSTU 280150Z 08020KT 11SM SCT017CB BKN040 OVC100 28/25 A2988
RMK SHRAE04 TSE10 CB ALQDS SLP119 T02750247=




000
SAZS31 NSTU 280055
MTRPPG
METAR NSTU 280051Z 08008KT 11SM TS -SHRA SCT015CB BKN038 BKN100
29/25 A2988 RMK OCNL LTGIC S RAB27 TSB40 TS S CB NE AND SE-SW SLP119
T02880248=




000
SAZS31 NSTU 272357
MTRPPG
METAR NSTU 272350Z 08013KT 12SM SCT018TCU BKN040 BKN095 31/26 A2990
RMK TCU ALQDS SLP127 60002 8/870 T03060260 10306 20259 57017=




000
SAZS31 NSTU 272254
MTRPPG
METAR NSTU 272251Z 09010KT 12SM FEW017 SCT040 BKN095 30/26 A2992 RMK
 SLP134 T02990263=




000
SAZS31 NSTU 272156
MTRPPG
METAR NSTU 272153Z 07016KT 12SM FEW014TCU BKN040 BKN095 28/25 A2994
RMK TCU N AND S SLP141 T02780253=




000
SAZS31 NSTU 272057
MTRPPG
METAR NSTU 272054Z 11013KT 12SM FEW015 SCT040 BKN095 29/26 A2995 RMK
SHRAE30 SLP144 60002 8/870 T02880263 52012=




000
SAZS31 NSTU 272057
MTRPPG
METAR NSTU 272054Z 11013KT 12SM FEW015 SCT040 BKN095 29/26 A2995 RMK
SHRAE30 SLP144 60002 8/870 T02880263 52012=




000
SAZS31 NSTU 271953
MTRPPG
METAR NSTU 271950Z 12011KT 11SM -SHRA SCT015TCU BKN040 BKN095 28/26
A2995 RMK TCU ALQDS SLP142 T02780262=




000
SAZS31 NSTU 271855
MTRPPG
METAR NSTU 271851Z 14010KT 11SM -SHRA BKN014TCU BKN040 OVC095 26/25
A2993 RMK TCU ALQDS SLP137 T02640249=




000
SAZS31 NSTU 271800
MTRPPG
METAR NSTU 271757Z 12015G22KT 5SM SHRA VV004 26/24 A2992 RMK SHRAB45
SLP132 60020 T02590242 10272 20259 52012=




000
SAZS31 NSTU 271800
MTRPPG
METAR NSTU 271757Z 12015G22KT 5SM SHRA VV004 26/24 A2992 RMK SHRAB45
SLP132 60020 T02590242 10272 20259 52012=




000
SAZS31 NSTU 271654
MTRPPG
METAR NSTU 271653Z 14012KT 10SM SCT018TCU BKN040 OVC100 26/25 A2990
RMK SHRAE45 TCU W-N-NE SLP125 T02630248=




000
SAZS31 NSTU 271559
MTRPPG
METAR NSTU 271556Z 15012KT 8SM -SHRA SCT018TCU BKN040 OVC100 27/24
A2989 RMK SHRAB20 TCU ALQDS SLP124 T02650244=




000
SAZS31 NSTU 271456
MTRPPG
METAR NSTU 271454Z 16011KT 10SM FEW023 SCT100 BKN250 27/24 A2988 RMK
SLP120 8/178 T02720238 57007=




000
SAZS31 NSTU 271456
MTRPPG
METAR NSTU 271454Z 16011KT 10SM FEW023 SCT100 BKN250 27/24 A2988 RMK
SLP120 8/178 T02720238 57007=




000
SAZS31 NSTU 271352
MTRPPG
METAR NSTU 271350Z 14009KT 10SM FEW023 SCT100 BKN250 27/24 A2989 RMK
SLP124 T02700236=




000
SAZS31 NSTU 271256
MTRPPG
METAR NSTU 271254Z 12011KT 10SM FEW023 SCT100 BKN250 27/23 A2990 RMK
SLP127 T02690233=




000
SAZS31 NSTU 271256
MTRPPG
METAR NSTU 271254Z 12011KT 10SM FEW023 SCT100 BKN250 27/23 A2990 RMK
SLP127 T02690233=




000
SAZS31 NSTU 271159
MTRPPG
METAR NSTU 271156Z 11011KT 10SM FEW023 SCT080 27/23 A2990 RMK SLP127
8/140 T02690228 10274 20269 57014=




000
SAZS31 NSTU 271159
MTRPPG
METAR NSTU 271156Z 11011KT 10SM FEW023 SCT080 27/23 A2990 RMK SLP127
8/140 T02690228 10274 20269 57014=




000
SAZS31 NSTU 271053
MTRPPG
METAR NSTU 271052Z 10012KT 10SM FEW023 SCT032 SCT100 27/24 A2992 RMK
SLP132 T02720235 403110269=




000
SAZS31 NSTU 271053
MTRPPG
METAR NSTU 271052Z 10012KT 10SM FEW023 SCT032 SCT100 27/24 A2992 RMK
SLP132 T02720235 403110269=




000
SAZS31 NSTU 270958
MTRPPG
METAR NSTU 270956Z 10013KT 10SM FEW023 SCT032 27/23 A2993 RMK SLP135
T02730233=




000
SAZS31 NSTU 270958
MTRPPG
METAR NSTU 270956Z 10013KT 10SM FEW023 SCT032 27/23 A2993 RMK SLP135
T02730233=




000
SAZS31 NSTU 270859
MTRPPG
METAR NSTU 270856Z 11012KT 10SM FEW023 SCT032 27/24 A2994 RMK SLP141
8/800 T02720235 51014=




000
SAZS31 NSTU 270859
MTRPPG
METAR NSTU 270856Z 11012KT 10SM FEW023 SCT032 27/24 A2994 RMK SLP141
8/800 T02720235 51014=




000
SAZS31 NSTU 270755
MTRPPG
METAR NSTU 270752Z 10012KT 10SM SCT023TCU 27/24 A2994 RMK TCU N
SLP139 T02740235=




000
SAZS31 NSTU 270656
MTRPPG
METAR NSTU 270654Z 09012KT 10SM FEW023 27/23 A2992 RMK SLP134
T02710227=




    US Dept of Commerce
    National Oceanic and Atmospheric Administration
    National Weather Service
    1325 East West Highway
    Silver Spring, MD 20910
    Page Author: NWS Internet Services Team
Disclaimer
Information Quality
Credits
Glossary
Privacy Policy
Freedom of Information Act (FOIA)
About Us
Career Opportunities